Time;durP1;ratioP1;P1;durP2;ratioP2;P2;SDS_P1;SDS_P2;PMS_P1;PMS_P2;Temp;Humidity;BMP_temperature;BMP_pressure;BME280_temperature;BME280_humidity;BME280_pressure;Samples;Min_cycle;Max_cycle;Signal;HPM_P1;HPM_P2
2023/10/14 00:01:13;;;;;;;32.90;17.98;;;16.30;99.90;;;;;;4990867;28;20022;-60
2023/10/14 00:03:43;;;;;;;32.30;17.17;;;16.30;99.90;;;;;;4973206;28;20069;-59
2023/10/14 00:06:14;;;;;;;29.25;16.63;;;16.20;99.90;;;;;;4973077;28;20513;-59
2023/10/14 00:08:56;;;;;;;36.25;15.77;;;16.20;99.90;;;;;;4990830;28;20023;-59
2023/10/14 00:11:23;;;;;;;29.95;14.77;;;16.20;99.90;;;;;;4984065;28;20041;-59
2023/10/14 00:13:49;;;;;;;35.45;16.70;;;16.20;99.90;;;;;;4990545;28;20030;-59
2023/10/14 00:18:51;;;;;;;28.38;15.55;;;16.10;99.90;;;;;;4991184;28;20038;-59
2023/10/14 00:21:17;;;;;;;25.52;15.82;;;16.10;99.90;;;;;;4990398;28;20027;-58
2023/10/14 00:23:43;;;;;;;32.42;16.70;;;16.10;99.90;;;;;;4972839;28;20027;-58
2023/10/14 00:26:14;;;;;;;26.42;15.63;;;16.10;99.90;;;;;;4972817;28;20027;-60
2023/10/14 00:28:46;;;;;;;32.45;15.25;;;16.00;99.90;;;;;;4990243;28;20026;-60
2023/10/14 00:31:13;;;;;;;22.30;14.93;;;16.00;99.90;;;;;;4990571;28;20041;-58
2023/10/14 00:33:39;;;;;;;26.25;13.43;;;16.00;99.90;;;;;;4990417;28;20026;-58
2023/10/14 00:36:10;;;;;;;28.17;13.35;;;16.00;99.90;;;;;;4987956;28;20030;-59
2023/10/14 00:38:38;;;;;;;25.33;14.13;;;16.00;99.90;;;;;;4974323;28;20031;-59
2023/10/14 00:41:03;;;;;;;26.52;13.88;;;16.00;99.90;;;;;;4988073;28;20028;-60
2023/10/14 00:43:29;;;;;;;23.25;13.70;;;16.00;99.90;;;;;;4982861;28;20027;-61
2023/10/14 00:45:54;;;;;;;22.25;12.70;;;16.10;99.90;;;;;;4981322;28;20030;-60
2023/10/14 00:48:27;;;;;;;27.65;13.60;;;16.10;99.90;;;;;;4983806;28;20507;-60
2023/10/14 00:50:58;;;;;;;24.30;12.32;;;16.10;99.90;;;;;;4985522;28;20507;-60
2023/10/14 00:53:27;;;;;;;23.63;13.52;;;16.10;99.90;;;;;;4985292;28;20031;-61
2023/10/14 00:55:54;;;;;;;27.95;13.00;;;16.10;99.90;;;;;;4990030;28;20054;-60
2023/10/14 00:58:23;;;;;;;26.30;12.27;;;16.00;99.90;;;;;;4989592;28;20502;-60
2023/10/14 01:00:59;;;;;;;26.65;12.73;;;16.10;99.90;;;;;;4980951;28;20110;-59
2023/10/14 01:03:31;;;;;;;31.48;13.35;;;16.10;99.90;;;;;;4983153;28;20026;-60
2023/10/14 01:05:57;;;;;;;23.20;12.25;;;16.20;99.90;;;;;;4967886;28;20480;-59
2023/10/14 01:08:25;;;;;;;27.98;11.25;;;16.10;99.90;;;;;;4986800;28;20076;-59
2023/10/14 01:10:51;;;;;;;18.08;12.02;;;16.10;99.90;;;;;;4972043;28;20483;-60
2023/10/14 01:13:21;;;;;;;22.45;12.27;;;16.10;99.90;;;;;;4986615;28;20057;-60
2023/10/14 01:15:48;;;;;;;20.17;11.48;;;16.10;99.90;;;;;;4989730;28;20116;-60
2023/10/14 01:18:14;;;;;;;21.27;11.63;;;16.00;99.90;;;;;;4989653;28;20034;-60
2023/10/14 01:20:41;;;;;;;20.05;11.07;;;16.10;99.90;;;;;;4989700;28;20027;-60
2023/10/14 01:23:07;;;;;;;17.20;12.15;;;16.10;99.90;;;;;;4992819;28;20440;-61
2023/10/14 01:25:39;;;;;;;22.25;9.38;;;16.10;99.90;;;;;;4989209;28;20101;-61
2023/10/14 01:28:11;;;;;;;24.25;9.93;;;16.20;99.90;;;;;;4989902;28;20404;-61
2023/10/14 01:30:50;;;;;;;18.13;10.65;;;16.20;99.90;;;;;;4988123;28;20070;-61
2023/10/14 01:33:16;;;;;;;16.90;8.63;;;16.30;99.90;;;;;;4989597;28;20377;-61
2023/10/14 01:35:51;;;;;;;16.98;9.07;;;16.50;99.90;;;;;;4989094;28;20178;-61
2023/10/14 01:38:17;;;;;;;11.00;8.18;;;16.60;99.90;;;;;;4989356;28;20384;-61
2023/10/14 01:40:49;;;;;;;18.73;8.32;;;16.60;99.90;;;;;;4989733;28;20022;-60
2023/10/14 01:43:15;;;;;;;15.23;7.00;;;16.70;99.90;;;;;;4972079;28;20104;-61
2023/10/14 01:45:50;;;;;;;17.58;7.78;;;16.80;99.90;;;;;;4988908;28;20054;-59
2023/10/14 01:48:21;;;;;;;14.80;8.32;;;16.90;99.90;;;;;;4989444;28;20035;-60
2023/10/14 01:50:54;;;;;;;;;;;16.90;99.90;;;;;;4989974;28;20042;-60
2023/10/14 01:53:24;;;;;;;11.77;8.00;;;16.90;99.90;;;;;;4989611;28;20346;-60
2023/10/14 01:55:55;;;;;;;16.75;6.80;;;16.90;99.90;;;;;;4989023;28;20085;-60
2023/10/14 01:58:22;;;;;;;12.45;7.40;;;16.90;99.90;;;;;;4981696;28;20141;-59
2023/10/14 02:01:14;;;;;;;16.15;6.88;;;17.00;99.90;;;;;;4989302;28;20023;-59
2023/10/14 02:03:47;;;;;;;18.23;7.40;;;17.10;99.90;;;;;;4992653;28;20479;-60
2023/10/14 02:06:30;;;;;;;13.13;7.38;;;17.00;99.90;;;;;;4993059;28;20032;-59
2023/10/14 02:09:04;;;;;;;12.70;6.63;;;17.30;99.90;;;;;;4993097;28;20146;-60
2023/10/14 02:11:33;;;;;;;13.07;7.15;;;17.40;99.90;;;;;;4975620;28;20026;-60
2023/10/14 02:14:02;;;;;;;12.48;6.45;;;17.40;99.90;;;;;;4992802;28;20022;-60
2023/10/14 02:16:30;;;;;;;14.20;7.63;;;17.40;99.90;;;;;;4993393;28;20022;-60
2023/10/14 02:19:17;;;;;;;13.25;6.80;;;17.50;99.90;;;;;;4993095;28;20392;-60
2023/10/14 02:21:43;;;;;;;11.27;7.13;;;17.50;99.90;;;;;;4975923;28;20026;-61
2023/10/14 02:24:10;;;;;;;21.45;7.15;;;17.50;99.90;;;;;;4992946;28;20225;-59
2023/10/14 02:26:38;;;;;;;14.70;6.72;;;17.60;99.90;;;;;;4992888;28;20026;-57
2023/10/14 02:29:07;;;;;;;15.48;7.47;;;17.60;99.90;;;;;;4992806;28;20033;-57
2023/10/14 02:31:36;;;;;;;12.73;7.22;;;17.60;99.90;;;;;;4975158;28;20121;-57
2023/10/14 02:34:06;;;;;;;13.43;7.50;;;17.70;99.90;;;;;;4992536;28;20041;-57
2023/10/14 02:36:50;;;;;;;14.98;7.30;;;17.70;99.90;;;;;;4992660;28;20096;-57
2023/10/14 02:39:27;;;;;;;14.10;6.35;;;17.70;99.90;;;;;;4992812;28;20117;-58
2023/10/14 02:42:05;;;;;;;12.23;6.90;;;17.70;99.90;;;;;;4992542;28;20019;-58
2023/10/14 02:44:33;;;;;;;13.15;7.40;;;17.80;99.90;;;;;;4992253;28;20096;-59
2023/10/14 02:47:08;;;;;;;15.88;7.38;;;17.60;99.90;;;;;;4992695;28;20487;-58
2023/10/14 02:49:39;;;;;;;12.95;7.85;;;17.50;99.90;;;;;;4992522;28;20057;-59
2023/10/14 02:52:12;;;;;;;11.05;5.93;;;17.30;99.90;;;;;;4992261;28;20097;-58
2023/10/14 02:54:44;;;;;;;6.85;3.78;;;17.10;99.90;;;;;;4992125;28;20093;-58
2023/10/14 02:57:13;;;;;;;6.15;3.20;;;16.90;99.90;;;;;;4992090;28;20529;-59
2023/10/14 03:07:28;;;;;;;4.85;1.25;;;15.50;99.90;;;;;;4992355;28;20476;-59
2023/10/14 03:09:58;;;;;;;4.22;1.55;;;14.70;99.90;;;;;;4974564;28;20030;-58
2023/10/14 03:12:27;;;;;;;3.22;1.98;;;14.20;99.90;;;;;;4991671;28;20068;-59
2023/10/14 03:14:53;;;;;;;5.45;2.50;;;13.80;99.90;;;;;;4991415;28;20164;-60
2023/10/14 03:17:39;;;;;;;6.32;1.63;;;13.60;99.90;;;;;;4991488;28;20486;-60
2023/10/14 03:22:57;;;;;;;5.60;1.50;;;13.20;99.90;;;;;;4991635;28;20027;-58
2023/10/14 03:25:23;;;;;;;4.95;1.50;;;13.10;99.90;;;;;;4991234;28;20120;-58
2023/10/14 03:28:00;;;;;;;2.95;1.70;;;13.10;99.90;;;;;;4991669;28;20026;-59
2023/10/14 03:30:26;;;;;;;8.43;2.35;;;13.00;99.90;;;;;;4991694;28;20026;-58
2023/10/14 03:32:52;;;;;;;2.47;1.55;;;12.90;99.90;;;;;;4991559;28;20031;-59
2023/10/14 03:35:21;;;;;;;3.15;1.70;;;12.90;99.90;;;;;;4990784;28;20042;-58
2023/10/14 03:38:00;;;;;;;4.07;1.52;;;13.00;99.90;;;;;;4974162;28;20062;-58
2023/10/14 03:43:19;;;;;;;5.90;2.10;;;12.90;99.90;;;;;;4991351;28;20089;-58
2023/10/14 03:48:30;;;;;;;9.50;2.22;;;12.90;99.90;;;;;;4985154;28;20061;-60
2023/10/14 03:51:02;;;;;;;7.00;2.20;;;12.90;99.90;;;;;;4991339;28;20022;-60
2023/10/14 03:53:34;;;;;;;7.45;1.98;;;12.80;99.90;;;;;;4973523;28;20023;-60
2023/10/14 03:56:01;;;;;;;6.28;1.92;;;12.70;99.90;;;;;;4990482;28;20061;-60
2023/10/14 03:58:30;;;;;;;7.68;2.10;;;12.80;99.90;;;;;;4991283;28;20022;-60
2023/10/14 04:00:57;;;;;;;6.57;2.00;;;12.70;99.90;;;;;;4991890;28;20018;-60
2023/10/14 04:03:41;;;;;;;6.88;2.65;;;12.80;99.90;;;;;;4990577;28;20036;-59
2023/10/14 04:06:08;;;;;;;5.00;2.13;;;12.70;99.90;;;;;;4990577;28;20022;-59
2023/10/14 04:08:46;;;;;;;9.70;2.17;;;12.70;99.90;;;;;;4990734;28;20032;-60
2023/10/14 04:11:15;;;;;;;7.38;2.17;;;12.70;99.90;;;;;;4973167;28;20384;-59
2023/10/14 04:14:34;;;;;;;4.80;2.22;;;12.70;99.90;;;;;;4990579;28;20113;-59
2023/10/14 04:16:48;;;;;;;12.25;3.78;;;12.70;99.90;;;;;;4976717;28;20129;-59
2023/10/14 04:19:26;;;;;;;18.58;3.65;;;12.70;99.90;;;;;;4990430;28;20045;-59
2023/10/14 04:22:25;;;;;;;8.20;2.17;;;12.60;99.90;;;;;;4990241;28;20057;-60
2023/10/14 04:25:07;;;;;;;6.57;2.25;;;12.50;99.90;;;;;;4985325;28;20088;-60
2023/10/14 04:27:36;;;;;;;8.10;2.13;;;12.40;99.90;;;;;;4990663;28;20018;-60
2023/10/14 04:30:11;;;;;;;3.55;1.88;;;12.40;99.90;;;;;;4990225;28;20030;-59
2023/10/14 04:33:04;;;;;;;5.20;2.20;;;12.30;99.90;;;;;;4990418;28;20026;-59
2023/10/14 04:35:36;;;;;;;9.38;2.47;;;12.30;99.90;;;;;;4990339;28;20026;-60
2023/10/14 04:38:03;;;;;;;8.60;2.30;;;12.40;99.90;;;;;;4971954;28;20127;-60
2023/10/14 04:43:19;;;;;;;7.65;2.42;;;12.30;99.90;;;;;;4982493;28;20023;-60
2023/10/14 04:45:52;;;;;;;5.00;2.30;;;12.30;99.90;;;;;;4982833;28;20109;-59
2023/10/14 04:48:19;;;;;;;5.05;2.25;;;12.30;99.90;;;;;;4972669;28;20400;-59
2023/10/14 04:50:45;;;;;;;7.18;2.00;;;12.30;99.90;;;;;;4983016;28;20014;-59
2023/10/14 04:53:13;;;;;;;7.63;2.03;;;12.30;99.90;;;;;;4984231;28;20026;-57
2023/10/14 04:55:43;;;;;;;10.65;3.25;;;12.30;99.90;;;;;;4966624;28;20476;-58
2023/10/14 04:58:14;;;;;;;4.50;2.15;;;12.30;99.90;;;;;;4983948;28;20033;-58
2023/10/14 05:00:42;;;;;;;5.68;2.22;;;12.20;99.90;;;;;;4987000;28;20026;-58
2023/10/14 05:03:11;;;;;;;6.82;2.63;;;12.30;99.90;;;;;;4989960;28;20495;-59
2023/10/14 05:05:38;;;;;;;8.63;2.78;;;12.20;99.90;;;;;;4989891;28;20164;-58
2023/10/14 05:08:05;;;;;;;8.05;3.22;;;12.30;99.90;;;;;;4990285;28;20080;-57
2023/10/14 05:10:31;;;;;;;13.70;3.10;;;12.30;99.90;;;;;;4990135;28;20029;-58
2023/10/14 05:12:57;;;;;;;14.45;2.90;;;12.20;99.90;;;;;;4989936;28;20022;-58
2023/10/14 05:15:27;;;;;;;12.45;3.75;;;12.30;99.90;;;;;;4990171;28;20053;-58
2023/10/14 05:17:53;;;;;;;15.77;3.55;;;12.20;99.90;;;;;;4990042;28;20034;-59
2023/10/14 05:20:29;;;;;;;13.43;3.78;;;12.20;99.90;;;;;;4990211;28;20057;-59
2023/10/14 05:22:56;;;;;;;13.05;3.92;;;12.20;99.90;;;;;;4989802;28;20027;-59
2023/10/14 05:25:27;;;;;;;27.85;3.67;;;12.20;99.90;;;;;;4989864;28;20026;-58
2023/10/14 05:27:58;;;;;;;10.93;3.15;;;12.10;99.90;;;;;;4990082;28;20065;-58
2023/10/14 05:30:32;;;;;;;15.73;3.58;;;12.20;99.90;;;;;;4988360;28;20395;-58
2023/10/14 05:33:06;;;;;;;14.63;3.33;;;12.10;99.90;;;;;;4966045;28;20546;-59
2023/10/14 05:35:42;;;;;;;19.77;3.38;;;12.10;99.90;;;;;;4989532;28;20042;-58
2023/10/14 05:38:11;;;;;;;21.17;3.30;;;12.10;99.90;;;;;;4993476;28;20621;-58
2023/10/14 05:40:41;;;;;;;12.85;2.97;;;12.00;99.90;;;;;;4991469;28;20032;-58
2023/10/14 05:43:07;;;;;;;14.57;3.03;;;12.00;99.90;;;;;;4986304;28;20018;-58
2023/10/14 05:45:36;;;;;;;7.93;2.80;;;12.00;99.90;;;;;;4983589;28;20097;-58
2023/10/14 05:48:09;;;;;;;10.88;3.03;;;11.90;99.90;;;;;;4987607;28;20109;-58
2023/10/14 05:50:35;;;;;;;12.25;3.28;;;11.80;99.90;;;;;;4970268;28;20053;-57
2023/10/14 05:53:01;;;;;;;16.77;4.72;;;11.80;99.90;;;;;;4993046;28;20057;-58
2023/10/14 05:55:29;;;;;;;13.77;3.58;;;11.80;99.90;;;;;;4993257;28;20035;-58
2023/10/14 05:57:58;;;;;;;25.38;3.45;;;11.70;99.90;;;;;;4976267;28;20391;-58
2023/10/14 06:00:25;;;;;;;24.55;3.22;;;11.70;99.90;;;;;;4992530;28;20022;-59
2023/10/14 06:02:55;;;;;;;12.85;3.40;;;11.50;99.90;;;;;;4993020;28;20021;-59
2023/10/14 06:05:39;;;;;;;24.10;3.50;;;11.50;99.90;;;;;;4987038;28;20023;-60
2023/10/14 06:08:16;;;;;;;17.42;2.95;;;11.50;99.90;;;;;;4995838;28;20438;-59
2023/10/14 06:10:42;;;;;;;21.75;3.10;;;11.40;99.90;;;;;;4992694;28;20037;-60
2023/10/14 06:13:09;;;;;;;20.75;3.63;;;11.40;99.90;;;;;;4992227;28;20030;-59
2023/10/14 06:15:39;;;;;;;15.30;3.10;;;11.20;99.90;;;;;;4991061;28;20479;-60
2023/10/14 06:18:05;;;;;;;18.25;3.30;;;11.30;99.90;;;;;;4991542;28;20113;-59
2023/10/14 06:20:35;;;;;;;17.63;3.25;;;11.30;99.90;;;;;;4993032;28;20019;-60
2023/10/14 06:23:01;;;;;;;23.48;3.85;;;11.20;99.90;;;;;;4993066;28;20034;-59
2023/10/14 06:25:29;;;;;;;17.02;3.78;;;11.20;99.90;;;;;;4992572;28;20030;-59
2023/10/14 06:27:55;;;;;;;12.85;3.58;;;11.10;99.90;;;;;;4992629;28;20029;-59
2023/10/14 06:30:21;;;;;;;27.58;3.90;;;11.10;99.90;;;;;;4992785;28;20075;-58
2023/10/14 06:33:03;;;;;;;15.98;3.25;;;11.10;99.90;;;;;;4992665;28;20022;-59
2023/10/14 06:35:37;;;;;;;21.25;4.18;;;11.10;99.90;;;;;;4986473;28;20044;-58
2023/10/14 06:38:04;;;;;;;23.35;3.70;;;11.10;99.90;;;;;;4989560;28;20165;-59
2023/10/14 06:40:36;;;;;;;15.32;3.22;;;11.10;99.90;;;;;;4989687;28;20022;-59
2023/10/14 06:43:13;;;;;;;16.92;3.55;;;11.00;99.90;;;;;;4971742;28;20027;-61
2023/10/14 06:45:39;;;;;;;23.70;3.88;;;11.10;99.90;;;;;;4983454;28;20077;-60
2023/10/14 06:48:09;;;;;;;19.45;3.95;;;11.00;99.90;;;;;;4988715;28;20113;-61
2023/10/14 06:50:41;;;;;;;27.52;5.22;;;11.00;99.90;;;;;;4974809;28;20031;-61
2023/10/14 06:53:09;;;;;;;19.33;3.58;;;11.00;99.90;;;;;;4992393;28;20034;-61
2023/10/14 06:55:39;;;;;;;27.83;4.05;;;11.00;99.90;;;;;;4992089;28;20035;-61
2023/10/14 06:58:09;;;;;;;26.92;3.92;;;11.00;99.90;;;;;;4991707;28;20026;-61
2023/10/14 07:00:37;;;;;;;20.65;3.83;;;11.00;99.90;;;;;;4992433;28;20110;-60
2023/10/14 07:03:06;;;;;;;34.50;4.40;;;10.90;99.90;;;;;;4991952;28;20022;-61
2023/10/14 07:05:43;;;;;;;13.18;2.83;;;10.80;99.90;;;;;;4992211;28;20023;-61
2023/10/14 07:08:09;;;;;;;15.98;3.45;;;10.80;99.90;;;;;;4974442;28;20048;-60
2023/10/14 07:10:35;;;;;;;25.42;4.45;;;10.90;99.90;;;;;;4991520;28;20101;-61
2023/10/14 07:13:01;;;;;;;21.30;4.43;;;10.90;99.90;;;;;;4990698;28;20624;-61
2023/10/14 07:15:31;;;;;;;28.48;3.63;;;10.90;99.90;;;;;;4974158;28;20100;-61
2023/10/14 07:17:58;;;;;;;23.13;5.30;;;10.80;99.90;;;;;;4991921;28;20368;-60
2023/10/14 07:20:25;;;;;;;30.25;3.78;;;10.80;99.90;;;;;;4991423;28;20502;-60
2023/10/14 07:22:51;;;;;;;18.88;3.58;;;10.80;99.90;;;;;;4987874;28;20022;-60
2023/10/14 07:25:18;;;;;;;19.02;3.38;;;10.90;99.90;;;;;;4990288;28;20443;-60
2023/10/14 07:27:44;;;;;;;15.75;3.28;;;10.80;99.90;;;;;;4973780;28;20340;-61
2023/10/14 07:30:16;;;;;;;28.13;4.28;;;10.80;99.90;;;;;;4991340;28;20064;-61
2023/10/14 07:32:43;;;;;;;26.75;4.25;;;10.80;99.90;;;;;;4989989;28;20027;-61
2023/10/14 07:35:11;;;;;;;23.58;4.72;;;10.80;99.90;;;;;;4991338;28;20025;-61
2023/10/14 07:37:48;;;;;;;20.25;3.92;;;10.80;99.90;;;;;;4991365;28;20041;-61
2023/10/14 07:40:26;;;;;;;24.40;3.60;;;10.80;99.90;;;;;;4991862;28;20030;-61
2023/10/14 07:43:00;;;;;;;37.80;4.25;;;10.90;99.90;;;;;;4987402;28;20031;-61
2023/10/14 07:45:28;;;;;;;35.65;5.50;;;10.80;99.90;;;;;;4990035;28;20022;-61
2023/10/14 07:47:56;;;;;;;17.20;3.47;;;10.90;99.90;;;;;;4991222;28;20036;-60
2023/10/14 07:50:22;;;;;;;30.95;4.30;;;11.00;99.90;;;;;;4987514;28;20038;-61
2023/10/14 07:52:48;;;;;;;26.65;4.20;;;11.00;99.90;;;;;;4991219;28;20113;-61
2023/10/14 07:55:22;;;;;;;22.08;3.58;;;11.00;99.90;;;;;;4990695;28;20129;-61
2023/10/14 07:57:48;;;;;;;35.05;4.30;;;11.00;99.90;;;;;;4991143;28;20499;-60
2023/10/14 08:00:14;;;;;;;44.00;4.82;;;10.90;99.90;;;;;;4990681;28;20041;-60
2023/10/14 08:02:41;;;;;;;21.23;3.60;;;11.00;99.90;;;;;;4991134;28;20106;-60
2023/10/14 08:05:08;;;;;;;14.25;4.65;;;11.00;99.90;;;;;;4991015;28;20030;-60
2023/10/14 08:07:40;;;;;;;28.48;3.95;;;11.00;99.90;;;;;;4973771;28;20076;-61
2023/10/14 08:10:16;;;;;;;32.47;4.30;;;11.10;99.90;;;;;;4989253;28;20031;-61
2023/10/14 08:12:52;;;;;;;24.10;3.92;;;11.10;99.90;;;;;;4990495;28;20042;-62
2023/10/14 08:15:18;;;;;;;19.42;3.20;;;11.10;99.90;;;;;;4990759;28;20034;-61
2023/10/14 08:17:44;;;;;;;14.70;3.55;;;11.30;99.90;;;;;;4989629;28;20153;-62
2023/10/14 08:20:13;;;;;;;12.73;2.97;;;11.50;99.90;;;;;;4989544;28;20022;-62
2023/10/14 08:22:45;;;;;;;17.92;3.33;;;11.80;99.90;;;;;;4989103;28;20092;-62
2023/10/14 08:25:12;;;;;;;18.17;2.80;;;12.00;99.90;;;;;;4971104;28;20538;-62
2023/10/14 08:27:38;;;;;;;12.15;2.97;;;12.20;99.90;;;;;;4981141;28;20050;-62
2023/10/14 08:30:10;;;;;;;16.85;2.80;;;12.30;99.90;;;;;;4987947;28;20355;-62
2023/10/14 08:32:40;;;;;;;18.45;3.03;;;12.40;99.90;;;;;;4989967;28;20416;-62
2023/10/14 08:35:14;;;;;;;14.07;3.35;;;12.60;99.90;;;;;;4972745;28;20022;-63
2023/10/14 08:37:51;;;;;;;12.13;2.33;;;12.60;99.90;;;;;;4972885;28;20030;-63
2023/10/14 08:40:22;;;;;;;17.27;2.90;;;12.80;99.90;;;;;;4990256;28;20053;-63
2023/10/14 08:42:50;;;;;;;11.60;2.75;;;12.90;99.90;;;;;;4990291;28;20026;-63
2023/10/14 08:45:20;;;;;;;13.07;2.53;;;13.20;99.90;;;;;;4990038;28;20254;-63
2023/10/14 08:47:50;;;;;;;16.20;3.05;;;13.30;99.90;;;;;;4990184;28;20027;-63
2023/10/14 08:50:18;;;;;;;13.40;3.17;;;13.50;99.90;;;;;;4990219;28;20072;-63
2023/10/14 08:52:49;;;;;;;19.70;3.67;;;14.00;99.90;;;;;;4989016;28;20037;-63
2023/10/14 08:55:16;;;;;;;13.77;3.00;;;15.20;99.90;;;;;;4982908;28;20477;-63
2023/10/14 08:57:46;;;;;;;14.57;2.50;;;16.50;99.90;;;;;;4988836;28;20038;-63
2023/10/14 09:00:23;;;;;;;11.17;2.77;;;17.20;99.90;;;;;;4970465;28;20037;-64
2023/10/14 09:02:53;;;;;;;15.07;2.60;;;17.40;99.90;;;;;;4989641;28;20022;-64
2023/10/14 09:05:20;;;;;;;10.67;2.77;;;17.90;99.90;;;;;;4989093;28;20597;-64
2023/10/14 09:07:49;;;;;;;9.40;2.58;;;17.70;99.90;;;;;;4989086;28;20293;-64
2023/10/14 09:10:16;;;;;;;6.93;2.20;;;18.00;99.70;;;;;;4984676;28;20069;-64
2023/10/14 09:13:11;;;;;;;7.55;2.33;;;18.20;98.80;;;;;;4982821;28;20110;-65
2023/10/14 09:15:39;;;;;;;13.77;2.58;;;17.80;98.80;;;;;;4975555;28;20425;-64
2023/10/14 09:18:34;;;;;;;10.55;3.25;;;17.50;99.40;;;;;;4985865;28;20031;-63
2023/10/14 09:21:00;;;;;;;9.55;2.40;;;18.30;98.00;;;;;;4961120;28;20106;-64
2023/10/14 09:23:29;;;;;;;8.32;2.40;;;19.10;97.60;;;;;;4971763;28;20053;-64
2023/10/14 09:25:56;;;;;;;7.38;2.58;;;20.50;95.50;;;;;;4969500;28;20025;-65
2023/10/14 09:28:27;;;;;;;11.38;3.00;;;21.50;93.50;;;;;;4982343;28;20045;-62
2023/10/14 09:30:55;;;;;;;7.05;2.15;;;22.60;90.00;;;;;;4987410;28;20046;-63
2023/10/14 09:33:24;;;;;;;10.23;2.80;;;22.60;87.70;;;;;;4988908;28;20113;-63
2023/10/14 09:35:54;;;;;;;11.10;3.05;;;23.10;84.20;;;;;;4972219;28;20033;-63
2023/10/14 09:38:24;;;;;;;14.75;3.05;;;22.80;82.30;;;;;;4989302;28;20400;-63
2023/10/14 09:40:59;;;;;;;8.88;2.80;;;23.30;80.90;;;;;;4989426;28;20101;-63
2023/10/14 09:43:25;;;;;;;11.38;2.38;;;24.00;77.50;;;;;;4982609;28;20659;-63
2023/10/14 09:45:55;;;;;;;7.35;2.42;;;24.30;76.70;;;;;;4988873;28;21348;-63
2023/10/14 09:48:25;;;;;;;7.68;2.35;;;24.70;74.90;;;;;;4986558;28;20026;-64
2023/10/14 09:50:54;;;;;;;;;;;25.20;74.00;;;;;;4990614;28;20033;-64
2023/10/14 09:53:27;;;;;;;12.98;2.38;;;25.10;72.90;;;;;;4990335;28;19910;-64
2023/10/14 09:55:54;;;;;;;9.68;2.67;;;25.50;70.60;;;;;;4989312;28;20483;-63
2023/10/14 09:58:23;;;;;;;7.75;2.28;;;24.00;72.50;;;;;;4968498;28;20038;-63
2023/10/14 10:00:49;;;;;;;12.48;2.50;;;23.30;72.30;;;;;;4986570;28;20471;-63
2023/10/14 10:03:15;;;;;;;10.55;2.65;;;22.90;73.40;;;;;;4989636;28;20480;-63
2023/10/14 10:05:58;;;;;;;10.95;2.50;;;23.70;71.10;;;;;;4989387;28;20057;-63
2023/10/14 10:08:52;;;;;;;11.05;2.60;;;24.10;70.90;;;;;;4989661;28;20109;-63
2023/10/14 10:11:23;;;;;;;8.90;3.03;;;24.40;68.50;;;;;;4990594;28;20027;-63
2023/10/14 10:13:52;;;;;;;11.25;2.60;;;24.20;71.10;;;;;;4990008;28;20438;-63
2023/10/14 10:16:21;;;;;;;6.85;2.22;;;25.00;68.50;;;;;;4971759;28;20436;-63
2023/10/14 10:18:58;;;;;;;8.30;2.03;;;25.30;68.10;;;;;;4989749;28;20041;-63
2023/10/14 10:21:34;;;;;;;11.70;2.63;;;24.70;67.00;;;;;;4989546;28;20026;-65
2023/10/14 10:24:23;;;;;;;8.88;2.55;;;24.20;68.50;;;;;;4992043;28;20029;-65
2023/10/14 10:27:03;;;;;;;11.73;2.63;;;24.70;66.60;;;;;;4992502;28;20487;-65
2023/10/14 10:29:33;;;;;;;9.60;2.50;;;24.60;67.50;;;;;;4989268;28;20034;-65
2023/10/14 10:32:09;;;;;;;6.97;2.13;;;24.70;66.80;;;;;;4992352;28;20026;-65
2023/10/14 10:35:06;;;;;;;6.63;2.45;;;24.50;68.80;;;;;;4975250;28;20043;-64
2023/10/14 10:37:37;;;;;;;7.82;2.47;;;23.80;70.50;;;;;;4975221;28;20030;-64
2023/10/14 10:40:10;;;;;;;10.77;2.30;;;23.60;71.10;;;;;;4992701;28;20085;-64
2023/10/14 10:42:47;;;;;;;10.70;2.72;;;23.30;70.70;;;;;;4990429;28;20034;-64
2023/10/14 10:45:21;;;;;;;9.57;2.20;;;22.80;71.60;;;;;;4991408;28;20011;-64
2023/10/14 10:47:54;;;;;;;8.18;2.55;;;23.00;70.90;;;;;;4992230;28;20025;-63
2023/10/14 10:50:22;;;;;;;13.00;2.40;;;22.80;71.40;;;;;;4986632;28;20031;-64
2023/10/14 10:53:10;;;;;;;7.00;2.50;;;21.50;72.10;;;;;;4991952;28;20488;-63
2023/10/14 10:55:46;;;;;;;9.90;3.00;;;20.30;76.30;;;;;;4991875;28;20019;-63
2023/10/14 10:58:12;;;;;;;8.73;2.15;;;20.60;75.80;;;;;;4992041;28;20109;-63
2023/10/14 11:00:40;;;;;;;9.10;2.40;;;20.40;75.30;;;;;;4992007;28;20515;-63
2023/10/14 11:03:06;;;;;;;11.57;2.80;;;19.70;76.70;;;;;;4991864;28;20026;-63
2023/10/14 11:05:33;;;;;;;11.60;2.58;;;18.70;78.70;;;;;;4991215;28;20085;-63
2023/10/14 11:08:03;;;;;;;10.30;2.30;;;18.70;78.40;;;;;;4971856;28;20057;-63
2023/10/14 11:10:33;;;;;;;8.50;2.55;;;18.80;77.20;;;;;;4992688;28;20034;-63
2023/10/14 11:12:59;;;;;;;10.73;2.65;;;19.00;79.20;;;;;;4992133;28;20038;-63
2023/10/14 11:15:27;;;;;;;7.28;2.05;;;19.00;78.50;;;;;;4991802;28;20026;-63
2023/10/14 11:17:56;;;;;;;9.35;2.63;;;18.70;79.30;;;;;;4992070;28;20023;-63
2023/10/14 11:20:23;;;;;;;10.57;3.00;;;18.10;80.20;;;;;;4991875;28;20080;-63
2023/10/14 11:22:49;;;;;;;13.40;3.22;;;18.80;80.50;;;;;;4991015;28;20101;-63
2023/10/14 11:25:18;;;;;;;9.10;2.28;;;20.00;78.10;;;;;;4991150;28;20027;-64
2023/10/14 11:27:45;;;;;;;10.70;2.25;;;20.80;76.80;;;;;;4991797;28;20015;-64
2023/10/14 11:30:12;;;;;;;9.10;2.28;;;22.20;76.20;;;;;;4991267;28;20022;-64
2023/10/14 11:32:48;;;;;;;12.45;2.75;;;22.90;69.20;;;;;;4989287;28;20026;-64
2023/10/14 11:35:16;;;;;;;11.00;3.03;;;23.00;68.30;;;;;;4989592;28;20109;-63
2023/10/14 11:37:42;;;;;;;10.25;3.08;;;23.10;66.40;;;;;;4990258;28;20026;-64
2023/10/14 11:40:13;;;;;;;7.43;2.08;;;23.40;66.90;;;;;;4999248;28;20034;-63
2023/10/14 11:42:39;;;;;;;11.30;2.90;;;24.50;66.20;;;;;;4991576;28;20015;-64
2023/10/14 11:45:06;;;;;;;8.48;2.90;;;24.70;64.10;;;;;;4989017;28;20327;-63
2023/10/14 11:47:36;;;;;;;9.00;2.17;;;24.20;64.40;;;;;;4974034;28;20045;-63
2023/10/14 11:50:11;;;;;;;10.05;2.95;;;23.00;65.60;;;;;;4990060;28;20038;-63
2023/10/14 11:52:38;;;;;;;9.55;2.13;;;22.50;68.90;;;;;;4990614;28;20412;-63
2023/10/14 11:55:04;;;;;;;74.72;9.15;;;23.60;68.60;;;;;;4990896;28;20022;-63
2023/10/14 11:57:30;;;;;;;10.35;2.78;;;24.70;68.50;;;;;;4990834;28;20041;-64
2023/10/14 11:59:58;;;;;;;11.25;2.47;;;24.40;64.90;;;;;;4991064;28;20065;-64
2023/10/14 12:02:24;;;;;;;12.05;2.58;;;23.50;65.70;;;;;;4990644;28;20427;-63
2023/10/14 12:04:50;;;;;;;6.80;2.47;;;22.10;68.40;;;;;;4982117;28;20019;-63
2023/10/14 12:07:16;;;;;;;8.30;2.22;;;21.90;71.10;;;;;;4983809;28;20022;-63
2023/10/14 12:09:42;;;;;;;14.77;2.70;;;21.30;70.90;;;;;;4990605;28;20498;-63
2023/10/14 12:12:08;;;;;;;9.95;2.53;;;20.40;71.00;;;;;;4989648;28;20057;-62
2023/10/14 12:14:34;;;;;;;8.35;2.53;;;19.50;73.50;;;;;;4990192;28;20092;-62
2023/10/14 12:17:04;;;;;;;8.68;2.50;;;18.70;73.80;;;;;;4990224;28;20038;-62
2023/10/14 12:19:30;;;;;;;17.08;2.60;;;18.10;75.00;;;;;;4990499;28;20026;-63
2023/10/14 12:21:56;;;;;;;8.30;2.25;;;17.60;77.20;;;;;;4990262;28;20035;-63
2023/10/14 12:24:21;;;;;;;12.45;2.70;;;17.60;78.60;;;;;;4990049;28;20437;-64
2023/10/14 12:26:49;;;;;;;8.98;2.35;;;17.50;79.40;;;;;;4990171;28;20031;-65
2023/10/14 12:29:15;;;;;;;9.25;2.25;;;17.50;79.50;;;;;;4990552;28;20041;-64
2023/10/14 12:31:44;;;;;;;16.27;2.92;;;18.20;80.60;;;;;;4990441;28;20022;-64
2023/10/14 12:34:11;;;;;;;9.23;2.50;;;18.70;79.70;;;;;;4990191;28;20022;-64
2023/10/14 12:36:40;;;;;;;12.75;2.17;;;19.00;78.10;;;;;;4989711;28;20022;-65
2023/10/14 12:39:18;;;;;;;10.20;2.45;;;19.20;76.10;;;;;;4988311;28;20416;-65
2023/10/14 12:41:47;;;;;;;8.25;2.30;;;19.40;76.30;;;;;;4990220;28;20030;-64
2023/10/14 12:44:13;;;;;;;9.48;2.10;;;19.60;75.30;;;;;;4989927;28;20098;-65
2023/10/14 12:46:45;;;;;;;10.23;2.53;;;19.70;75.60;;;;;;4990013;28;20011;-64
2023/10/14 12:49:11;;;;;;;8.90;2.65;;;19.90;74.70;;;;;;4985520;28;20361;-63
2023/10/14 12:51:43;;;;;;;15.07;2.75;;;20.30;76.60;;;;;;4989224;28;20037;-63
2023/10/14 12:54:19;;;;;;;14.05;2.88;;;20.50;76.10;;;;;;4987819;28;20087;-64
2023/10/14 12:56:45;;;;;;;9.80;2.88;;;20.50;71.80;;;;;;4989386;28;20026;-63
2023/10/14 12:59:14;;;;;;;8.90;2.33;;;20.30;72.00;;;;;;4989481;28;20052;-62
2023/10/14 13:01:46;;;;;;;5.50;2.17;;;20.50;75.50;;;;;;4989524;28;20073;-63
2023/10/14 13:04:16;;;;;;;7.55;2.13;;;20.60;73.60;;;;;;4989577;28;20060;-61
2023/10/14 13:06:44;;;;;;;12.02;2.25;;;20.60;72.70;;;;;;4995659;28;20112;-62
2023/10/14 13:09:14;;;;;;;11.13;2.25;;;20.10;72.20;;;;;;4990916;28;20030;-61
2023/10/14 13:11:40;;;;;;;15.80;2.35;;;19.80;74.30;;;;;;4988458;28;20117;-62
2023/10/14 13:14:05;;;;;;;11.35;2.28;;;19.70;73.80;;;;;;4988312;28;20026;-61
2023/10/14 13:16:31;;;;;;;9.45;2.25;;;19.40;73.50;;;;;;4988586;28;20526;-62
2023/10/14 13:18:57;;;;;;;9.07;2.50;;;19.00;73.00;;;;;;4988455;28;20065;-62